sensor_id;sensor_type;location;lat;lon;timestamp;pressure;altitude;pressure_sealevel;temperature;humidity
9091;BME280;4581;42.416;25.598;2023-01-28T00:00:48;97622.81;;;3.71;100.00
9091;BME280;4581;42.416;25.598;2023-01-28T00:03:14;97620.59;;;3.66;100.00
9091;BME280;4581;42.416;25.598;2023-01-28T00:05:42;97627.28;;;3.70;100.00
9091;BME280;4581;42.416;25.598;2023-01-28T00:08:08;97626.69;;;3.76;100.00
9091;BME280;4581;42.416;25.598;2023-01-28T00:10:36;97631.63;;;3.71;100.00
9091;BME280;4581;42.416;25.598;2023-01-28T00:13:10;97628.97;;;3.71;100.00
9091;BME280;4581;42.416;25.598;2023-01-28T00:15:40;97633.00;;;3.75;100.00
9091;BME280;4581;42.416;25.598;2023-01-28T00:18:06;97637.28;;;3.68;100.00
9091;BME280;4581;42.416;25.598;2023-01-28T00:20:33;97641.66;;;3.77;100.00
9091;BME280;4581;42.416;25.598;2023-01-28T00:23:00;97649.66;;;3.77;100.00
9091;BME280;4581;42.416;25.598;2023-01-28T00:25:27;97647.16;;;3.76;100.00
9091;BME280;4581;42.416;25.598;2023-01-28T00:27:54;97652.03;;;3.81;100.00
9091;BME280;4581;42.416;25.598;2023-01-28T00:30:20;97654.72;;;3.81;100.00
9091;BME280;4581;42.416;25.598;2023-01-28T00:32:47;97648.34;;;3.82;100.00
9091;BME280;4581;42.416;25.598;2023-01-28T00:35:14;97654.53;;;3.82;100.00
9091;BME280;4581;42.416;25.598;2023-01-28T00:37:44;97660.31;;;3.77;100.00
9091;BME280;4581;42.416;25.598;2023-01-28T00:40:11;97665.66;;;3.77;100.00
9091;BME280;4581;42.416;25.598;2023-01-28T00:42:38;97662.91;;;3.69;100.00
9091;BME280;4581;42.416;25.598;2023-01-28T00:45:05;97661.94;;;3.70;100.00
9091;BME280;4581;42.416;25.598;2023-01-28T00:47:32;97667.50;;;3.77;100.00
9091;BME280;4581;42.416;25.598;2023-01-28T00:49:58;97665.31;;;3.72;100.00
9091;BME280;4581;42.416;25.598;2023-01-28T00:52:25;97671.09;;;3.68;100.00
9091;BME280;4581;42.416;25.598;2023-01-28T00:54:53;97671.16;;;3.58;100.00
9091;BME280;4581;42.416;25.598;2023-01-28T00:57:19;97665.16;;;3.56;100.00
9091;BME280;4581;42.416;25.598;2023-01-28T00:59:46;97668.94;;;3.54;100.00
9091;BME280;4581;42.416;25.598;2023-01-28T01:02:13;97658.81;;;3.57;100.00
9091;BME280;4581;42.416;25.598;2023-01-28T01:04:39;97673.50;;;3.61;100.00
9091;BME280;4581;42.416;25.598;2023-01-28T01:07:06;97656.72;;;3.61;100.00
9091;BME280;4581;42.416;25.598;2023-01-28T01:09:33;97681.22;;;3.64;100.00
9091;BME280;4581;42.416;25.598;2023-01-28T01:12:00;97674.44;;;3.52;100.00
9091;BME280;4581;42.416;25.598;2023-01-28T01:14:26;97680.44;;;3.54;100.00
9091;BME280;4581;42.416;25.598;2023-01-28T01:16:53;97674.00;;;3.57;100.00
9091;BME280;4581;42.416;25.598;2023-01-28T01:19:20;97668.75;;;3.47;100.00
9091;BME280;4581;42.416;25.598;2023-01-28T01:21:46;97672.38;;;3.46;100.00
9091;BME280;4581;42.416;25.598;2023-01-28T01:24:16;97678.03;;;3.43;100.00
9091;BME280;4581;42.416;25.598;2023-01-28T01:26:43;97686.31;;;3.40;100.00
9091;BME280;4581;42.416;25.598;2023-01-28T01:29:10;97680.16;;;3.40;100.00
9091;BME280;4581;42.416;25.598;2023-01-28T01:31:37;97678.25;;;3.32;100.00
9091;BME280;4581;42.416;25.598;2023-01-28T01:34:04;97688.22;;;3.30;100.00
9091;BME280;4581;42.416;25.598;2023-01-28T01:36:31;97682.22;;;3.28;100.00
9091;BME280;4581;42.416;25.598;2023-01-28T01:38:57;97690.34;;;3.26;100.00
9091;BME280;4581;42.416;25.598;2023-01-28T01:41:29;97695.75;;;3.17;100.00
9091;BME280;4581;42.416;25.598;2023-01-28T01:44:01;97687.34;;;3.12;100.00
9091;BME280;4581;42.416;25.598;2023-01-28T01:46:41;97695.00;;;3.24;100.00
9091;BME280;4581;42.416;25.598;2023-01-28T01:49:18;97698.00;;;3.12;100.00
9091;BME280;4581;42.416;25.598;2023-01-28T01:51:49;97695.25;;;3.04;100.00
9091;BME280;4581;42.416;25.598;2023-01-28T01:54:18;97699.88;;;3.02;100.00
9091;BME280;4581;42.416;25.598;2023-01-28T01:56:49;97702.00;;;2.98;100.00
9091;BME280;4581;42.416;25.598;2023-01-28T01:59:21;97699.34;;;2.98;100.00
9091;BME280;4581;42.416;25.598;2023-01-28T02:01:51;97697.53;;;2.99;100.00
9091;BME280;4581;42.416;25.598;2023-01-28T02:06:47;97703.06;;;3.05;100.00
9091;BME280;4581;42.416;25.598;2023-01-28T02:09:24;97714.44;;;3.07;100.00
9091;BME280;4581;42.416;25.598;2023-01-28T02:11:55;97707.28;;;3.08;100.00
9091;BME280;4581;42.416;25.598;2023-01-28T02:14:27;97705.50;;;2.99;100.00
9091;BME280;4581;42.416;25.598;2023-01-28T02:16:58;97708.56;;;3.04;100.00
9091;BME280;4581;42.416;25.598;2023-01-28T02:19:31;97704.66;;;2.98;100.00
9091;BME280;4581;42.416;25.598;2023-01-28T02:25:17;97709.94;;;3.08;100.00
9091;BME280;4581;42.416;25.598;2023-01-28T02:30:41;97708.38;;;2.88;100.00
9091;BME280;4581;42.416;25.598;2023-01-28T02:33:18;97713.09;;;2.94;100.00
9091;BME280;4581;42.416;25.598;2023-01-28T02:35:54;97713.09;;;2.94;100.00
9091;BME280;4581;42.416;25.598;2023-01-28T02:38:35;97720.00;;;2.87;100.00
9091;BME280;4581;42.416;25.598;2023-01-28T02:41:08;97728.28;;;2.83;100.00
9091;BME280;4581;42.416;25.598;2023-01-28T02:43:42;97722.78;;;2.85;100.00
9091;BME280;4581;42.416;25.598;2023-01-28T02:49:01;97721.19;;;2.65;100.00
9091;BME280;4581;42.416;25.598;2023-01-28T02:51:38;97723.22;;;2.53;100.00
9091;BME280;4581;42.416;25.598;2023-01-28T02:54:13;97723.22;;;2.53;100.00
9091;BME280;4581;42.416;25.598;2023-01-28T02:59:48;97723.16;;;2.26;100.00
9091;BME280;4581;42.416;25.598;2023-01-28T03:02:37;97721.75;;;2.31;100.00
9091;BME280;4581;42.416;25.598;2023-01-28T03:05:28;97720.91;;;2.31;100.00
9091;BME280;4581;42.416;25.598;2023-01-28T03:07:56;97722.31;;;2.25;100.00
9091;BME280;4581;42.416;25.598;2023-01-28T03:10:25;97720.63;;;2.34;100.00
9091;BME280;4581;42.416;25.598;2023-01-28T03:12:54;97721.59;;;2.33;100.00
9091;BME280;4581;42.416;25.598;2023-01-28T03:15:43;97723.69;;;2.39;100.00
9091;BME280;4581;42.416;25.598;2023-01-28T03:18:44;97727.19;;;2.30;100.00
9091;BME280;4581;42.416;25.598;2023-01-28T03:21:35;97730.44;;;2.24;100.00
9091;BME280;4581;42.416;25.598;2023-01-28T03:24:25;97735.59;;;2.25;100.00
9091;BME280;4581;42.416;25.598;2023-01-28T03:30:11;97729.63;;;2.14;100.00
9091;BME280;4581;42.416;25.598;2023-01-28T03:32:58;97734.50;;;2.09;100.00
9091;BME280;4581;42.416;25.598;2023-01-28T03:35:44;97737.59;;;2.14;100.00
9091;BME280;4581;42.416;25.598;2023-01-28T03:38:31;97738.31;;;2.16;100.00
9091;BME280;4581;42.416;25.598;2023-01-28T03:41:01;97733.25;;;2.13;100.00
9091;BME280;4581;42.416;25.598;2023-01-28T03:43:31;97744.47;;;2.16;100.00
9091;BME280;4581;42.416;25.598;2023-01-28T03:45:57;97739.41;;;2.23;100.00
9091;BME280;4581;42.416;25.598;2023-01-28T03:48:27;97742.31;;;2.29;100.00
9091;BME280;4581;42.416;25.598;2023-01-28T03:50:55;97747.78;;;2.28;100.00
9091;BME280;4581;42.416;25.598;2023-01-28T03:53:21;97752.09;;;2.29;100.00
9091;BME280;4581;42.416;25.598;2023-01-28T03:55:50;97747.25;;;2.24;100.00
9091;BME280;4581;42.416;25.598;2023-01-28T03:58:18;97753.50;;;2.33;100.00
9091;BME280;4581;42.416;25.598;2023-01-28T04:00:46;97742.75;;;2.25;100.00
9091;BME280;4581;42.416;25.598;2023-01-28T04:03:15;97759.41;;;2.27;100.00
9091;BME280;4581;42.416;25.598;2023-01-28T04:06:00;97773.78;;;2.44;100.00
9091;BME280;4581;42.416;25.598;2023-01-28T04:08:27;97770.88;;;2.27;100.00
9091;BME280;4581;42.416;25.598;2023-01-28T04:10:55;97775.75;;;2.42;100.00
9091;BME280;4581;42.416;25.598;2023-01-28T04:13:22;97776.72;;;2.50;100.00
9091;BME280;4581;42.416;25.598;2023-01-28T04:15:49;97770.72;;;2.48;100.00
9091;BME280;4581;42.416;25.598;2023-01-28T04:18:15;97772.34;;;2.59;100.00
9091;BME280;4581;42.416;25.598;2023-01-28T04:20:42;97773.91;;;2.52;100.00
9091;BME280;4581;42.416;25.598;2023-01-28T04:23:09;97773.78;;;2.44;100.00
9091;BME280;4581;42.416;25.598;2023-01-28T04:25:36;97773.63;;;2.55;100.00
9091;BME280;4581;42.416;25.598;2023-01-28T04:28:02;97781.34;;;2.48;100.00
9091;BME280;4581;42.416;25.598;2023-01-28T04:30:29;97779.06;;;2.53;100.00
9091;BME280;4581;42.416;25.598;2023-01-28T04:32:56;97784.38;;;2.63;100.00
9091;BME280;4581;42.416;25.598;2023-01-28T04:35:23;97782.41;;;2.65;100.00
9091;BME280;4581;42.416;25.598;2023-01-28T04:37:50;97786.56;;;2.77;100.00
9091;BME280;4581;42.416;25.598;2023-01-28T04:40:16;97781.41;;;2.75;100.00
9091;BME280;4581;42.416;25.598;2023-01-28T04:42:52;97797.66;;;2.72;100.00
9091;BME280;4581;42.416;25.598;2023-01-28T04:45:19;97798.81;;;2.60;100.00
9091;BME280;4581;42.416;25.598;2023-01-28T04:47:46;97803.59;;;2.57;100.00
9091;BME280;4581;42.416;25.598;2023-01-28T04:50:13;97804.81;;;2.62;100.00
9091;BME280;4581;42.416;25.598;2023-01-28T04:52:40;97803.13;;;2.61;100.00
9091;BME280;4581;42.416;25.598;2023-01-28T04:55:08;97808.88;;;2.66;100.00
9091;BME280;4581;42.416;25.598;2023-01-28T04:57:35;97809.59;;;2.68;100.00
9091;BME280;4581;42.416;25.598;2023-01-28T05:00:02;97811.81;;;2.63;100.00
9091;BME280;4581;42.416;25.598;2023-01-28T05:02:29;97809.84;;;2.65;100.00
9091;BME280;4581;42.416;25.598;2023-01-28T05:04:56;97811.41;;;2.58;100.00
9091;BME280;4581;42.416;25.598;2023-01-28T05:07:22;97823.91;;;2.39;100.00
9091;BME280;4581;42.416;25.598;2023-01-28T05:09:49;97831.19;;;2.46;100.00
9091;BME280;4581;42.416;25.598;2023-01-28T05:12:15;97822.78;;;2.41;100.00
9091;BME280;4581;42.416;25.598;2023-01-28T05:14:42;97827.66;;;2.46;100.00
9091;BME280;4581;42.416;25.598;2023-01-28T05:17:09;97791.72;;;2.22;100.00
9091;BME280;4581;42.416;25.598;2023-01-28T05:19:35;97831.03;;;2.38;100.00
9091;BME280;4581;42.416;25.598;2023-01-28T05:22:02;97836.22;;;2.30;100.00
9091;BME280;4581;42.416;25.598;2023-01-28T05:24:29;97834.53;;;2.29;100.00
9091;BME280;4581;42.416;25.598;2023-01-28T05:26:55;97831.50;;;2.24;100.00
9091;BME280;4581;42.416;25.598;2023-01-28T05:29:22;97838.22;;;2.28;100.00
9091;BME280;4581;42.416;25.598;2023-01-28T05:31:49;97827.97;;;2.33;100.00
9091;BME280;4581;42.416;25.598;2023-01-28T05:34:15;97838.06;;;2.20;100.00
9091;BME280;4581;42.416;25.598;2023-01-28T05:36:42;97823.78;;;2.21;100.00
9091;BME280;4581;42.416;25.598;2023-01-28T05:39:08;97841.53;;;2.30;100.00
9091;BME280;4581;42.416;25.598;2023-01-28T05:41:35;97852.91;;;2.32;100.00
9091;BME280;4581;42.416;25.598;2023-01-28T05:44:02;97843.53;;;2.28;100.00
9091;BME280;4581;42.416;25.598;2023-01-28T05:46:28;97849.09;;;2.25;100.00
9091;BME280;4581;42.416;25.598;2023-01-28T05:48:55;97850.50;;;2.10;100.00
9091;BME280;4581;42.416;25.598;2023-01-28T05:51:21;97854.16;;;2.18;100.00
9091;BME280;4581;42.416;25.598;2023-01-28T05:53:48;97857.53;;;2.20;100.00
9091;BME280;4581;42.416;25.598;2023-01-28T05:56:15;97845.63;;;2.15;100.00
9091;BME280;4581;42.416;25.598;2023-01-28T05:58:41;97854.41;;;2.25;100.00
9091;BME280;4581;42.416;25.598;2023-01-28T06:01:08;97869.41;;;2.35;100.00
9091;BME280;4581;42.416;25.598;2023-01-28T06:03:35;97861.97;;;2.39;100.00
9091;BME280;4581;42.416;25.598;2023-01-28T06:06:01;97867.00;;;2.42;100.00
9091;BME280;4581;42.416;25.598;2023-01-28T06:08:28;97876.81;;;2.51;100.00
9091;BME280;4581;42.416;25.598;2023-01-28T06:10:54;97867.31;;;2.49;100.00
9091;BME280;4581;42.416;25.598;2023-01-28T06:13:21;97879.75;;;2.58;100.00
9091;BME280;4581;42.416;25.598;2023-01-28T06:15:48;97879.75;;;2.58;100.00
9091;BME280;4581;42.416;25.598;2023-01-28T06:18:16;97886.47;;;2.52;100.00
9091;BME280;4581;42.416;25.598;2023-01-28T06:20:42;97888.00;;;2.55;100.00
9091;BME280;4581;42.416;25.598;2023-01-28T06:23:09;97897.53;;;2.57;100.00
9091;BME280;4581;42.416;25.598;2023-01-28T06:25:35;97893.59;;;2.61;100.00
9091;BME280;4581;42.416;25.598;2023-01-28T06:28:02;97896.94;;;2.73;100.00
9091;BME280;4581;42.416;25.598;2023-01-28T06:30:29;97902.84;;;2.67;100.00
9091;BME280;4581;42.416;25.598;2023-01-28T06:32:55;97895.53;;;2.78;100.00
9091;BME280;4581;42.416;25.598;2023-01-28T06:35:22;97892.72;;;2.90;100.00
9091;BME280;4581;42.416;25.598;2023-01-28T06:37:49;97895.00;;;2.85;100.00
9091;BME280;4581;42.416;25.598;2023-01-28T06:40:18;97910.66;;;2.88;100.00
9091;BME280;4581;42.416;25.598;2023-01-28T06:42:44;97902.81;;;2.96;100.00
9091;BME280;4581;42.416;25.598;2023-01-28T06:45:11;97910.91;;;2.94;100.00
9091;BME280;4581;42.416;25.598;2023-01-28T06:47:38;97906.59;;;2.83;100.00
9091;BME280;4581;42.416;25.598;2023-01-28T06:50:06;97911.75;;;2.95;100.00
9091;BME280;4581;42.416;25.598;2023-01-28T06:52:32;97921.56;;;3.04;100.00
9091;BME280;4581;42.416;25.598;2023-01-28T06:54:59;97916.53;;;3.01;100.00
9091;BME280;4581;42.416;25.598;2023-01-28T06:57:26;97919.31;;;3.09;100.00
9091;BME280;4581;42.416;25.598;2023-01-28T06:59:53;97924.34;;;3.12;100.00
9091;BME280;4581;42.416;25.598;2023-01-28T07:02:20;97921.56;;;3.04;100.00
9091;BME280;4581;42.416;25.598;2023-01-28T07:04:46;97932.28;;;3.31;100.00
9091;BME280;4581;42.416;25.598;2023-01-28T07:07:13;97938.38;;;3.51;100.00
9091;BME280;4581;42.416;25.598;2023-01-28T07:09:39;97940.75;;;3.54;100.00
9091;BME280;4581;42.416;25.598;2023-01-28T07:12:06;97939.75;;;3.55;100.00
9091;BME280;4581;42.416;25.598;2023-01-28T07:14:33;97944.78;;;3.58;100.00
9091;BME280;4581;42.416;25.598;2023-01-28T07:16:59;97944.78;;;3.58;100.00
9091;BME280;4581;42.416;25.598;2023-01-28T07:19:26;97951.63;;;3.70;100.00
9091;BME280;4581;42.416;25.598;2023-01-28T07:21:52;97957.13;;;3.68;100.00
9091;BME280;4581;42.416;25.598;2023-01-28T07:24:23;97949.66;;;3.72;100.00
9091;BME280;4581;42.416;25.598;2023-01-28T07:26:49;97958.59;;;3.81;100.00
9091;BME280;4581;42.416;25.598;2023-01-28T07:29:16;97964.06;;;4.06;100.00
9091;BME280;4581;42.416;25.598;2023-01-28T07:31:42;97953.84;;;4.02;100.00
9091;BME280;4581;42.416;25.598;2023-01-28T07:34:09;97970.66;;;4.12;100.00
9091;BME280;4581;42.416;25.598;2023-01-28T07:36:36;97973.31;;;4.12;100.00
9091;BME280;4581;42.416;25.598;2023-01-28T07:39:03;97977.66;;;4.13;100.00
9091;BME280;4581;42.416;25.598;2023-01-28T07:41:30;97974.16;;;4.12;100.00
9091;BME280;4581;42.416;25.598;2023-01-28T07:43:56;97984.22;;;3.91;100.00
9091;BME280;4581;42.416;25.598;2023-01-28T07:46:23;97987.53;;;4.03;100.00
9091;BME280;4581;42.416;25.598;2023-01-28T07:48:49;97988.88;;;4.16;100.00
9091;BME280;4581;42.416;25.598;2023-01-28T07:51:16;97990.97;;;4.40;100.00
9091;BME280;4581;42.416;25.598;2023-01-28T07:53:43;97994.41;;;4.50;100.00
9091;BME280;4581;42.416;25.598;2023-01-28T07:56:09;97997.06;;;4.50;100.00
9091;BME280;4581;42.416;25.598;2023-01-28T07:58:36;97997.38;;;4.47;100.00
9091;BME280;4581;42.416;25.598;2023-01-28T08:01:03;98008.06;;;4.47;100.00
9091;BME280;4581;42.416;25.598;2023-01-28T08:03:30;98013.84;;;4.43;100.00
9091;BME280;4581;42.416;25.598;2023-01-28T08:05:56;98025.31;;;4.53;100.00
9091;BME280;4581;42.416;25.598;2023-01-28T08:08:24;98027.22;;;4.60;100.00
9091;BME280;4581;42.416;25.598;2023-01-28T08:10:52;98024.06;;;4.47;98.75
9091;BME280;4581;42.416;25.598;2023-01-28T08:13:20;98032.34;;;4.27;99.28
9091;BME280;4581;42.416;25.598;2023-01-28T08:15:46;98032.19;;;4.28;98.62
9091;BME280;4581;42.416;25.598;2023-01-28T08:18:15;98038.72;;;4.43;96.01
9091;BME280;4581;42.416;25.598;2023-01-28T08:20:42;98042.44;;;4.50;94.86
9091;BME280;4581;42.416;25.598;2023-01-28T08:23:19;98045.13;;;4.50;92.50
9091;BME280;4581;42.416;25.598;2023-01-28T08:25:49;98046.59;;;4.62;91.85
9091;BME280;4581;42.416;25.598;2023-01-28T08:28:16;98043.91;;;4.45;94.74
9091;BME280;4581;42.416;25.598;2023-01-28T08:30:43;98048.41;;;4.44;93.49
9091;BME280;4581;42.416;25.598;2023-01-28T08:33:12;98043.59;;;4.48;94.39
9091;BME280;4581;42.416;25.598;2023-01-28T08:35:40;98034.88;;;4.46;95.62
9091;BME280;4581;42.416;25.598;2023-01-28T08:38:08;98044.22;;;4.59;95.74
9091;BME280;4581;42.416;25.598;2023-01-28T08:40:36;98050.72;;;4.75;93.42
9091;BME280;4581;42.416;25.598;2023-01-28T08:43:03;98056.69;;;4.86;92.97
9091;BME280;4581;42.416;25.598;2023-01-28T08:45:30;98055.41;;;4.90;92.70
9091;BME280;4581;42.416;25.598;2023-01-28T08:47:59;98054.03;;;5.04;90.22
9091;BME280;4581;42.416;25.598;2023-01-28T08:50:29;98058.03;;;5.17;91.63
9091;BME280;4581;42.416;25.598;2023-01-28T08:53:00;98061.56;;;5.26;92.39
9091;BME280;4581;42.416;25.598;2023-01-28T08:55:27;98056.38;;;5.42;90.67
9091;BME280;4581;42.416;25.598;2023-01-28T08:57:54;98064.25;;;5.44;88.13
9091;BME280;4581;42.416;25.598;2023-01-28T09:00:23;98076.16;;;5.32;84.86
9091;BME280;4581;42.416;25.598;2023-01-28T09:02:51;98065.25;;;5.25;87.76
9091;BME280;4581;42.416;25.598;2023-01-28T09:05:19;98065.84;;;5.37;90.15
9091;BME280;4581;42.416;25.598;2023-01-28T09:07:47;98060.69;;;5.17;88.60
9091;BME280;4581;42.416;25.598;2023-01-28T09:10:14;98057.91;;;5.45;87.16
9091;BME280;4581;42.416;25.598;2023-01-28T09:12:43;98058.56;;;5.64;87.52
9091;BME280;4581;42.416;25.598;2023-01-28T09:15:10;98060.34;;;5.38;86.96
9091;BME280;4581;42.416;25.598;2023-01-28T09:17:37;98057.78;;;5.54;86.95
9091;BME280;4581;42.416;25.598;2023-01-28T09:20:05;98060.47;;;5.54;86.14
9091;BME280;4581;42.416;25.598;2023-01-28T09:22:33;98052.38;;;5.46;86.09
9091;BME280;4581;42.416;25.598;2023-01-28T09:24:59;98054.84;;;5.57;85.76
9091;BME280;4581;42.416;25.598;2023-01-28T09:27:26;98055.97;;;5.55;85.58
9091;BME280;4581;42.416;25.598;2023-01-28T09:29:53;98054.00;;;5.39;86.98
9091;BME280;4581;42.416;25.598;2023-01-28T09:32:19;98048.13;;;5.53;85.82
9091;BME280;4581;42.416;25.598;2023-01-28T09:34:46;98051.72;;;5.44;86.81
9091;BME280;4581;42.416;25.598;2023-01-28T09:37:13;98053.88;;;5.66;85.63
9091;BME280;4581;42.416;25.598;2023-01-28T09:39:40;98052.38;;;5.90;85.87
9091;BME280;4581;42.416;25.598;2023-01-28T09:45:10;98054.81;;;6.01;87.34
9091;BME280;4581;42.416;25.598;2023-01-28T09:47:49;98054.72;;;5.67;84.80
9091;BME280;4581;42.416;25.598;2023-01-28T09:50:23;98052.28;;;5.74;86.19
9091;BME280;4581;42.416;25.598;2023-01-28T09:52:54;98048.72;;;5.91;87.55
9091;BME280;4581;42.416;25.598;2023-01-28T09:55:32;98056.25;;;6.21;87.38
9091;BME280;4581;42.416;25.598;2023-01-28T09:57:59;98050.94;;;6.29;84.76
9091;BME280;4581;42.416;25.598;2023-01-28T10:00:40;98053.34;;;6.40;86.21
9091;BME280;4581;42.416;25.598;2023-01-28T10:17:43;98052.50;;;6.98;82.22
9091;BME280;4581;42.416;25.598;2023-01-28T10:26:04;98038.97;;;7.64;77.43
9091;BME280;4581;42.416;25.598;2023-01-28T10:28:35;98048.84;;;7.56;76.75
9091;BME280;4581;42.416;25.598;2023-01-28T10:31:10;98031.25;;;7.69;80.21
9091;BME280;4581;42.416;25.598;2023-01-28T10:33:37;98052.84;;;7.76;74.49
9091;BME280;4581;42.416;25.598;2023-01-28T10:36:06;98043.13;;;7.59;78.92
9091;BME280;4581;42.416;25.598;2023-01-28T10:38:34;98051.03;;;7.52;80.48
9091;BME280;4581;42.416;25.598;2023-01-28T10:41:02;98048.00;;;7.47;77.79
9091;BME280;4581;42.416;25.598;2023-01-28T10:43:31;98048.50;;;7.18;76.86
9091;BME280;4581;42.416;25.598;2023-01-28T10:46:15;98054.19;;;7.23;77.13
9091;BME280;4581;42.416;25.598;2023-01-28T10:51:11;98058.59;;;7.57;77.93
9091;BME280;4581;42.416;25.598;2023-01-28T10:53:43;98053.38;;;7.47;77.94
9091;BME280;4581;42.416;25.598;2023-01-28T10:56:24;98054.06;;;7.41;78.47
9091;BME280;4581;42.416;25.598;2023-01-28T10:59:06;98054.56;;;7.28;79.51
9091;BME280;4581;42.416;25.598;2023-01-28T11:01:46;98053.69;;;7.12;75.29
9091;BME280;4581;42.416;25.598;2023-01-28T11:04:27;98049.84;;;7.06;77.10
9091;BME280;4581;42.416;25.598;2023-01-28T11:09:31;98052.53;;;7.06;76.16
9091;BME280;4581;42.416;25.598;2023-01-28T11:12:13;98047.66;;;7.01;80.90
9091;BME280;4581;42.416;25.598;2023-01-28T11:15:15;98051.16;;;6.94;77.28
9091;BME280;4581;42.416;25.598;2023-01-28T11:17:47;98048.69;;;6.58;75.71
9091;BME280;4581;42.416;25.598;2023-01-28T11:20:24;98059.00;;;6.37;74.36
9091;BME280;4581;42.416;25.598;2023-01-28T11:22:52;98066.53;;;6.34;70.23
9091;BME280;4581;42.416;25.598;2023-01-28T11:25:33;98051.00;;;6.37;74.93
9091;BME280;4581;42.416;25.598;2023-01-28T11:28:04;98053.03;;;6.51;74.11
9091;BME280;4581;42.416;25.598;2023-01-28T11:30:37;98055.16;;;6.82;71.93
9091;BME280;4581;42.416;25.598;2023-01-28T11:33:19;98065.91;;;6.98;70.73
9091;BME280;4581;42.416;25.598;2023-01-28T11:35:55;98057.56;;;7.09;70.25
9091;BME280;4581;42.416;25.598;2023-01-28T11:38:24;98061.41;;;7.23;68.41
9091;BME280;4581;42.416;25.598;2023-01-28T11:40:53;98071.28;;;7.30;68.08
9091;BME280;4581;42.416;25.598;2023-01-28T11:43:23;98069.97;;;7.34;68.22
9091;BME280;4581;42.416;25.598;2023-01-28T11:57:50;98077.19;;;7.42;65.51
9091;BME280;4581;42.416;25.598;2023-01-28T12:00:28;98066.13;;;7.45;65.55
9091;BME280;4581;42.416;25.598;2023-01-28T12:08:42;98075.66;;;7.47;62.17
9091;BME280;4581;42.416;25.598;2023-01-28T12:11:24;98079.34;;;7.54;63.36
9091;BME280;4581;42.416;25.598;2023-01-28T12:20:31;98096.25;;;8.04;62.01
9091;BME280;4581;42.416;25.598;2023-01-28T12:23:34;98089.16;;;8.35;61.63
9091;BME280;4581;42.416;25.598;2023-01-28T12:26:15;98096.41;;;8.18;61.89
9091;BME280;4581;42.416;25.598;2023-01-28T12:42:35;98105.81;;;7.17;63.48
9091;BME280;4581;42.416;25.598;2023-01-28T12:45:17;98111.84;;;7.27;66.34
9091;BME280;4581;42.416;25.598;2023-01-28T12:47:55;98100.91;;;7.04;64.94
9091;BME280;4581;42.416;25.598;2023-01-28T12:50:29;98108.13;;;7.12;65.52
9091;BME280;4581;42.416;25.598;2023-01-28T12:53:02;98113.16;;;7.15;66.85
9091;BME280;4581;42.416;25.598;2023-01-28T12:55:40;98117.88;;;7.21;67.00
9091;BME280;4581;42.416;25.598;2023-01-28T12:58:23;98123.88;;;7.15;65.61
9091;BME280;4581;42.416;25.598;2023-01-28T13:00:58;98124.91;;;7.22;67.74
9091;BME280;4581;42.416;25.598;2023-01-28T13:06:07;98125.41;;;7.10;66.23
9091;BME280;4581;42.416;25.598;2023-01-28T13:08:35;98127.25;;;7.09;64.88
9091;BME280;4581;42.416;25.598;2023-01-28T13:11:03;98137.97;;;7.09;66.45
9091;BME280;4581;42.416;25.598;2023-01-28T13:13:36;98125.41;;;7.10;68.25
9091;BME280;4581;42.416;25.598;2023-01-28T13:16:06;98144.47;;;7.06;65.06
9091;BME280;4581;42.416;25.598;2023-01-28T13:18:43;98132.91;;;6.98;67.38
9091;BME280;4581;42.416;25.598;2023-01-28T13:31:53;98145.38;;;6.73;67.72
9091;BME280;4581;42.416;25.598;2023-01-28T13:34:41;98151.25;;;6.77;68.38
9091;BME280;4581;42.416;25.598;2023-01-28T13:37:36;98160.97;;;6.78;67.36
9091;BME280;4581;42.416;25.598;2023-01-28T13:42:40;98165.44;;;6.69;66.59
9091;BME280;4581;42.416;25.598;2023-01-28T13:45:19;98164.91;;;6.66;68.58
9091;BME280;4581;42.416;25.598;2023-01-28T13:47:50;98164.88;;;6.57;67.17
9091;BME280;4581;42.416;25.598;2023-01-28T13:50:20;98162.69;;;6.53;69.04
9091;BME280;4581;42.416;25.598;2023-01-28T13:53:02;98167.28;;;6.43;69.00
9091;BME280;4581;42.416;25.598;2023-01-28T13:55:37;98170.25;;;6.32;67.95
9091;BME280;4581;42.416;25.598;2023-01-28T14:01:24;98170.66;;;6.19;68.45
9091;BME280;4581;42.416;25.598;2023-01-28T14:17:46;98186.44;;;6.04;69.78
9091;BME280;4581;42.416;25.598;2023-01-28T14:20:36;98186.59;;;6.03;70.80
9091;BME280;4581;42.416;25.598;2023-01-28T14:23:16;98191.28;;;6.01;70.54
9091;BME280;4581;42.416;25.598;2023-01-28T14:25:56;98185.84;;;5.93;70.29
9091;BME280;4581;42.416;25.598;2023-01-28T14:28:45;98185.75;;;5.85;70.96
9091;BME280;4581;42.416;25.598;2023-01-28T14:31:26;98194.47;;;5.87;70.44
9091;BME280;4581;42.416;25.598;2023-01-28T14:33:54;98190.81;;;5.88;70.85
9091;BME280;4581;42.416;25.598;2023-01-28T14:36:25;98196.63;;;6.01;72.24
9091;BME280;4581;42.416;25.598;2023-01-28T14:38:54;98193.56;;;5.96;71.04
9091;BME280;4581;42.416;25.598;2023-01-28T14:41:25;98187.06;;;5.98;71.50
9091;BME280;4581;42.416;25.598;2023-01-28T14:43:56;98193.41;;;5.97;71.82
9091;BME280;4581;42.416;25.598;2023-01-28T14:46:37;98190.88;;;5.96;71.50
9091;BME280;4581;42.416;25.598;2023-01-28T14:49:48;98196.09;;;5.97;71.65
9091;BME280;4581;42.416;25.598;2023-01-28T14:57:38;98182.84;;;5.60;70.60
9091;BME280;4581;42.416;25.598;2023-01-28T15:00:28;98202.03;;;5.74;71.17
9091;BME280;4581;42.416;25.598;2023-01-28T15:02:55;98205.16;;;5.69;70.81
9091;BME280;4581;42.416;25.598;2023-01-28T15:05:24;98208.44;;;5.63;72.40
9091;BME280;4581;42.416;25.598;2023-01-28T15:07:51;98209.91;;;5.57;73.08
9091;BME280;4581;42.416;25.598;2023-01-28T15:10:23;98214.16;;;5.50;73.62
9091;BME280;4581;42.416;25.598;2023-01-28T15:13:17;98217.53;;;5.52;74.67
9091;BME280;4581;42.416;25.598;2023-01-28T15:15:47;98222.56;;;5.55;73.26
9091;BME280;4581;42.416;25.598;2023-01-28T15:20:54;98216.59;;;5.44;74.43
9091;BME280;4581;42.416;25.598;2023-01-28T15:23:26;98211.94;;;5.46;75.45
9091;BME280;4581;42.416;25.598;2023-01-28T15:25:53;98223.47;;;5.46;75.54
9091;BME280;4581;42.416;25.598;2023-01-28T15:28:30;98225.53;;;5.35;75.78
9091;BME280;4581;42.416;25.598;2023-01-28T15:30:58;98241.31;;;5.28;76.42
9091;BME280;4581;42.416;25.598;2023-01-28T15:33:27;98233.44;;;5.27;77.24
9091;BME280;4581;42.416;25.598;2023-01-28T15:35:56;98239.63;;;5.27;78.08
9091;BME280;4581;42.416;25.598;2023-01-28T15:38:25;98243.00;;;5.29;78.95